Garrisonville, Virginia
Current Conditions -  °F | °C
As of 12:15 PM on Thursday 27 Nov 2014 (Local Time) from KRMN Reporting Station
Moderate Rain Moderate Rain  
Wind Chill: 39°   Ceiling: 2300
Heat Index: 39°   Visibility: 5mi
Dew Point: 39°   Wind: 0mph
Humidity: 100%   Direction: NA
Pressure: 30.09"   Gusts: NA
Location:  38.48°N, 77.43°W
Report Text: KRMN 271715Z AUTO 00000KT 5SM RA BKN023 OVC028 04/04 A3009 RMK AO2 T00380038
Loading
Personal Weather Stations






























Interactive Weather Map New forecast layout! Learn more

10-Day Weather Forecast

Advertisements
Track Severe Weather on mobile